TK1248 LIRF-LTFM
Flight info
| Callsign | TK1248 |
|---|---|
| Flight time | 1h 54m |
| Altitude | 35000 |
| Route | OKUNO DCT TINIX DCT ATRUP DCT ENFAR DCT VELBA DCT AYTEK |
| Aircraft | B38M/M-SDE1FGHILORVWXY/HB1 |
Departure
| Time | 2026-02-18 04:19 |
|---|---|
| Airport | Rome–Fiumicino Leonardo da Vinci International Airport (LIRF) |
Arrival
| Time | 2026-02-18 06:13 |
|---|---|
| Airport | İstanbul Airport (LTFM) |
| Time | Latitude | Longitude | Altitude | Speed | Heading |
|---|---|---|---|---|---|
| 2026-02-18 03:58 | 41.79831 | 12.25551 | 20 ft | 0 kts | 140° |
| 2026-02-18 04:08 | 41.79831 | 12.25550 | 20 ft | 0 kts | 140° |
| 2026-02-18 04:08 | 41.79838 | 12.25543 | 20 ft | 2 kts | 139° |
| 2026-02-18 04:08 | 41.79849 | 12.25527 | 21 ft | 2 kts | 115° |
| 2026-02-18 04:09 | 41.79849 | 12.25506 | 23 ft | 2 kts | 57° |
| 2026-02-18 04:09 | 41.79840 | 12.25487 | 22 ft | 2 kts | 60° |
| 2026-02-18 04:09 | 41.79831 | 12.25469 | 23 ft | 2 kts | 35° |
| 2026-02-18 04:09 | 41.79816 | 12.25459 | 23 ft | 2 kts | 22° |
| 2026-02-18 04:10 | 41.79809 | 12.25456 | 24 ft | 0 kts | 22° |
| 2026-02-18 04:12 | 41.79836 | 12.25472 | 23 ft | 9 kts | 27° |
| 2026-02-18 04:12 | 41.79902 | 12.25515 | 20 ft | 12 kts | 25° |
| 2026-02-18 04:12 | 41.79969 | 12.25522 | 20 ft | 7 kts | 317° |
| 2026-02-18 04:12 | 41.79987 | 12.25449 | 21 ft | 15 kts | 291° |
| 2026-02-18 04:13 | 41.80037 | 12.25300 | 21 ft | 18 kts | 296° |
| 2026-02-18 04:13 | 41.80092 | 12.25218 | 22 ft | 4 kts | 11° |
| 2026-02-18 04:13 | 41.80124 | 12.25287 | 23 ft | 22 kts | 68° |
| 2026-02-18 04:13 | 41.80245 | 12.25430 | 21 ft | 26 kts | 17° |
| 2026-02-18 04:14 | 41.80353 | 12.25599 | 19 ft | 25 kts | 71° |
| 2026-02-18 04:14 | 41.80414 | 12.25829 | 17 ft | 27 kts | 70° |
| 2026-02-18 04:14 | 41.80479 | 12.26064 | 17 ft | 27 kts | 69° |
| 2026-02-18 04:15 | 41.80614 | 12.26550 | 18 ft | 29 kts | 70° |
| 2026-02-18 04:15 | 41.80683 | 12.26806 | 16 ft | 30 kts | 70° |
| 2026-02-18 04:15 | 41.80744 | 12.27028 | 13 ft | 23 kts | 71° |
| 2026-02-18 04:16 | 41.80897 | 12.27102 | 12 ft | 14 kts | 340° |
| 2026-02-18 04:16 | 41.80970 | 12.27037 | 13 ft | 11 kts | 287° |
| 2026-02-18 04:16 | 41.80947 | 12.26888 | 14 ft | 19 kts | 252° |
| 2026-02-18 04:16 | 41.80931 | 12.26823 | 16 ft | 0 kts | 251° |
| 2026-02-18 04:17 | 41.80930 | 12.26819 | 15 ft | 2 kts | 251° |
| 2026-02-18 04:18 | 41.80869 | 12.26600 | 16 ft | 66 kts | 249° |
| 2026-02-18 04:18 | 41.80614 | 12.25678 | 19 ft | 145 kts | 249° |
| 2026-02-18 04:18 | 41.80204 | 12.24171 | 182 ft | 194 kts | 251° |
| 2026-02-18 04:19 | 41.80158 | 12.20238 | 2360 ft | 210 kts | 309° |
| 2026-02-18 04:19 | 41.81337 | 12.19224 | 3794 ft | 208 kts | 346° |
| 2026-02-18 04:19 | 41.82847 | 12.19386 | 4503 ft | 239 kts | 21° |
| 2026-02-18 04:19 | 41.84121 | 12.21026 | 5032 ft | 277 kts | 63° |
| 2026-02-18 04:20 | 41.84412 | 12.23675 | 5648 ft | 303 kts | 93° |
| 2026-02-18 04:20 | 41.83990 | 12.26468 | 6627 ft | 308 kts | 105° |
| 2026-02-18 04:20 | 41.83407 | 12.29158 | 8007 ft | 293 kts | 93° |
| 2026-02-18 04:20 | 41.83572 | 12.31803 | 9132 ft | 285 kts | 66° |
| 2026-02-18 04:21 | 41.84463 | 12.34192 | 9930 ft | 290 kts | 55° |
| 2026-02-18 04:21 | 41.85461 | 12.36585 | 10597 ft | 303 kts | 55° |
| 2026-02-18 04:21 | 41.86528 | 12.39142 | 11047 ft | 323 kts | 55° |
| 2026-02-18 04:21 | 41.87663 | 12.41851 | 11503 ft | 341 kts | 55° |
| 2026-02-18 04:22 | 41.88838 | 12.44652 | 12045 ft | 354 kts | 55° |
| 2026-02-18 04:22 | 41.90060 | 12.47567 | 12790 ft | 360 kts | 54° |
| 2026-02-18 04:22 | 41.91307 | 12.50541 | 13641 ft | 363 kts | 54° |
| 2026-02-18 04:23 | 41.93794 | 12.56485 | 15050 ft | 371 kts | 54° |
| 2026-02-18 04:23 | 41.95064 | 12.59523 | 15715 ft | 375 kts | 53° |
| 2026-02-18 04:23 | 41.96345 | 12.62591 | 16385 ft | 379 kts | 53° |
| 2026-02-18 04:23 | 41.97639 | 12.65694 | 17054 ft | 383 kts | 53° |
| 2026-02-18 04:24 | 41.98946 | 12.68831 | 17711 ft | 387 kts | 53° |
| 2026-02-18 04:24 | 42.00268 | 12.72007 | 18349 ft | 391 kts | 53° |
| 2026-02-18 04:24 | 42.01150 | 12.74128 | 18697 ft | 393 kts | 53° |
| 2026-02-18 04:24 | 42.02947 | 12.78455 | 19424 ft | 399 kts | 53° |
| 2026-02-18 04:25 | 42.03843 | 12.80615 | 19777 ft | 401 kts | 53° |
| 2026-02-18 04:25 | 42.05209 | 12.83911 | 20273 ft | 406 kts | 53° |
| 2026-02-18 04:25 | 42.06590 | 12.87246 | 20795 ft | 409 kts | 53° |
| 2026-02-18 04:25 | 42.07977 | 12.90600 | 21283 ft | 412 kts | 53° |
| 2026-02-18 04:26 | 42.09379 | 12.93992 | 21790 ft | 416 kts | 53° |
| 2026-02-18 04:26 | 42.10778 | 12.97432 | 22302 ft | 421 kts | 54° |
| 2026-02-18 04:26 | 42.12146 | 13.00937 | 22798 ft | 424 kts | 55° |
| 2026-02-18 04:27 | 42.14923 | 13.08025 | 23745 ft | 431 kts | 55° |
| 2026-02-18 04:27 | 42.16326 | 13.11608 | 24127 ft | 434 kts | 55° |
| 2026-02-18 04:27 | 42.17736 | 13.15224 | 24548 ft | 437 kts | 55° |
| 2026-02-18 04:27 | 42.19156 | 13.18869 | 24953 ft | 440 kts | 55° |
| 2026-02-18 04:28 | 42.20586 | 13.22542 | 25375 ft | 443 kts | 55° |
| 2026-02-18 04:28 | 42.22019 | 13.26230 | 25743 ft | 446 kts | 55° |
| 2026-02-18 04:28 | 42.23465 | 13.29955 | 26132 ft | 449 kts | 55° |
| 2026-02-18 04:28 | 42.24916 | 13.33698 | 26474 ft | 452 kts | 55° |
| 2026-02-18 04:29 | 42.26379 | 13.37475 | 26858 ft | 455 kts | 55° |
| 2026-02-18 04:29 | 42.27851 | 13.41282 | 27205 ft | 459 kts | 55° |
| 2026-02-18 04:29 | 42.29333 | 13.45121 | 27564 ft | 462 kts | 54° |
| 2026-02-18 04:29 | 42.30819 | 13.48974 | 27930 ft | 465 kts | 54° |
| 2026-02-18 04:30 | 42.32316 | 13.52861 | 28246 ft | 468 kts | 54° |
| 2026-02-18 04:30 | 42.33723 | 13.56794 | 28552 ft | 477 kts | 62° |
| 2026-02-18 04:30 | 42.34499 | 13.61216 | 28935 ft | 493 kts | 78° |
| 2026-02-18 04:31 | 42.34262 | 13.70639 | 29538 ft | 506 kts | 88° |
| 2026-02-18 04:31 | 42.34030 | 13.75416 | 29817 ft | 509 kts | 89° |
| 2026-02-18 04:31 | 42.33778 | 13.80199 | 30120 ft | 512 kts | 89° |
| 2026-02-18 04:31 | 42.33514 | 13.85006 | 30367 ft | 514 kts | 89° |
| 2026-02-18 04:32 | 42.33248 | 13.89832 | 30633 ft | 516 kts | 89° |
| 2026-02-18 04:32 | 42.32977 | 13.94692 | 30855 ft | 519 kts | 89° |
| 2026-02-18 04:32 | 42.32703 | 13.99559 | 31115 ft | 520 kts | 89° |
| 2026-02-18 04:32 | 42.32427 | 14.04444 | 31423 ft | 521 kts | 89° |
| 2026-02-18 04:33 | 42.32148 | 14.09324 | 31776 ft | 521 kts | 89° |
| 2026-02-18 04:33 | 42.31871 | 14.14154 | 32116 ft | 521 kts | 89° |
| 2026-02-18 04:33 | 42.31585 | 14.19092 | 32422 ft | 521 kts | 89° |
| 2026-02-18 04:33 | 42.31304 | 14.23910 | 32755 ft | 521 kts | 89° |
| 2026-02-18 04:34 | 42.31017 | 14.28800 | 33082 ft | 521 kts | 89° |
| 2026-02-18 04:34 | 42.30728 | 14.33684 | 33390 ft | 522 kts | 89° |
| 2026-02-18 04:34 | 42.30436 | 14.38573 | 33697 ft | 522 kts | 89° |
| 2026-02-18 04:35 | 42.29847 | 14.48345 | 34247 ft | 522 kts | 90° |
| 2026-02-18 04:35 | 42.29549 | 14.53235 | 34489 ft | 523 kts | 90° |
| 2026-02-18 04:35 | 42.29249 | 14.58131 | 34732 ft | 523 kts | 90° |
| 2026-02-18 04:35 | 42.28946 | 14.63035 | 34962 ft | 524 kts | 90° |
| 2026-02-18 04:36 | 42.28641 | 14.67937 | 35001 ft | 524 kts | 90° |
| 2026-02-18 04:36 | 42.28026 | 14.77728 | 34988 ft | 522 kts | 90° |
| 2026-02-18 04:37 | 42.27403 | 14.87506 | 34987 ft | 522 kts | 90° |
| 2026-02-18 04:37 | 42.26769 | 14.97284 | 34633 ft | 523 kts | 88° |
| 2026-02-18 04:37 | 42.26456 | 15.02120 | 34829 ft | 524 kts | 88° |
| 2026-02-18 04:38 | 42.26134 | 15.07024 | 34979 ft | 526 kts | 88° |
| 2026-02-18 04:38 | 42.25476 | 15.16950 | 34979 ft | 531 kts | 88° |
| 2026-02-18 04:39 | 42.24472 | 15.31856 | 34984 ft | 532 kts | 88° |
| 2026-02-18 04:39 | 42.23790 | 15.41804 | 34986 ft | 532 kts | 88° |
| 2026-02-18 04:40 | 42.23100 | 15.51752 | 34991 ft | 532 kts | 88° |
| 2026-02-18 04:40 | 42.22401 | 15.61705 | 34991 ft | 532 kts | 88° |
| 2026-02-18 04:41 | 42.21694 | 15.71651 | 35013 ft | 533 kts | 88° |
| 2026-02-18 04:41 | 42.20977 | 15.81597 | 35005 ft | 533 kts | 88° |
| 2026-02-18 04:42 | 42.20252 | 15.91549 | 35005 ft | 533 kts | 88° |
| 2026-02-18 04:43 | 42.19152 | 16.06412 | 34996 ft | 533 kts | 88° |
| 2026-02-18 04:43 | 42.18406 | 16.16352 | 34992 ft | 533 kts | 88° |
| 2026-02-18 04:44 | 42.17650 | 16.26300 | 34993 ft | 533 kts | 88° |
| 2026-02-18 04:44 | 42.16886 | 16.36237 | 34990 ft | 533 kts | 88° |
| 2026-02-18 04:45 | 42.16114 | 16.46168 | 34988 ft | 533 kts | 88° |
| 2026-02-18 04:45 | 42.15337 | 16.56057 | 34989 ft | 533 kts | 88° |
| 2026-02-18 04:46 | 42.14546 | 16.66000 | 34986 ft | 533 kts | 88° |
| 2026-02-18 04:46 | 42.13748 | 16.75937 | 34987 ft | 533 kts | 88° |
| 2026-02-18 04:47 | 42.12125 | 16.95792 | 34984 ft | 533 kts | 88° |
| 2026-02-18 04:48 | 42.11306 | 17.05659 | 34982 ft | 534 kts | 88° |
| 2026-02-18 04:48 | 42.10473 | 17.15589 | 34978 ft | 534 kts | 88° |
| 2026-02-18 04:49 | 42.09631 | 17.25522 | 34981 ft | 534 kts | 88° |
| 2026-02-18 04:49 | 42.08778 | 17.35471 | 34975 ft | 535 kts | 88° |
| 2026-02-18 04:50 | 42.07916 | 17.45435 | 34975 ft | 535 kts | 88° |
| 2026-02-18 04:50 | 42.07046 | 17.55380 | 34972 ft | 536 kts | 88° |
| 2026-02-18 04:51 | 42.05729 | 17.70254 | 34971 ft | 536 kts | 88° |
| 2026-02-18 04:51 | 42.04833 | 17.80248 | 34960 ft | 537 kts | 88° |
| 2026-02-18 04:52 | 42.03929 | 17.90228 | 34965 ft | 537 kts | 88° |
| 2026-02-18 04:52 | 42.03016 | 18.00213 | 34966 ft | 538 kts | 88° |
| 2026-02-18 04:53 | 42.02093 | 18.10199 | 34961 ft | 538 kts | 88° |
| 2026-02-18 04:53 | 42.01168 | 18.20122 | 34955 ft | 538 kts | 88° |
| 2026-02-18 04:54 | 42.00228 | 18.30109 | 34955 ft | 538 kts | 88° |
| 2026-02-18 04:55 | 41.98802 | 18.45077 | 34946 ft | 538 kts | 88° |
| 2026-02-18 04:55 | 41.97840 | 18.55062 | 34943 ft | 538 kts | 88° |
| 2026-02-18 04:56 | 41.96871 | 18.65027 | 34931 ft | 537 kts | 88° |
| 2026-02-18 04:56 | 41.95902 | 18.74900 | 34937 ft | 536 kts | 89° |
| 2026-02-18 04:57 | 41.94918 | 18.84834 | 34941 ft | 536 kts | 89° |
| 2026-02-18 04:57 | 41.93926 | 18.94760 | 34935 ft | 535 kts | 89° |
| 2026-02-18 04:58 | 41.92928 | 19.04654 | 34929 ft | 534 kts | 89° |
| 2026-02-18 04:58 | 41.91925 | 19.14521 | 34923 ft | 533 kts | 89° |
| 2026-02-18 04:59 | 41.90406 | 19.29289 | 34920 ft | 532 kts | 89° |
| 2026-02-18 04:59 | 41.89385 | 19.39114 | 34924 ft | 531 kts | 89° |
| 2026-02-18 05:00 | 41.88364 | 19.48861 | 34915 ft | 530 kts | 89° |
| 2026-02-18 05:00 | 41.87329 | 19.58654 | 34906 ft | 530 kts | 89° |
| 2026-02-18 05:01 | 41.85759 | 19.73354 | 34932 ft | 530 kts | 90° |
| 2026-02-18 05:02 | 41.84702 | 19.83142 | 34920 ft | 529 kts | 90° |
| 2026-02-18 05:02 | 41.83641 | 19.92911 | 34921 ft | 530 kts | 90° |
| 2026-02-18 05:03 | 41.82037 | 20.07560 | 34910 ft | 529 kts | 90° |
| 2026-02-18 05:03 | 41.80964 | 20.17252 | 34897 ft | 528 kts | 90° |
| 2026-02-18 05:04 | 41.79879 | 20.26986 | 34916 ft | 527 kts | 90° |
| 2026-02-18 05:04 | 41.78789 | 20.36692 | 34918 ft | 526 kts | 91° |
| 2026-02-18 05:05 | 41.77690 | 20.46397 | 34918 ft | 527 kts | 91° |
| 2026-02-18 05:05 | 41.77173 | 20.56011 | 34872 ft | 504 kts | 74° |
| 2026-02-18 05:06 | 41.78009 | 20.65316 | 34930 ft | 504 kts | 73° |
| 2026-02-18 05:07 | 41.79299 | 20.79221 | 34894 ft | 502 kts | 74° |
| 2026-02-18 05:07 | 41.80153 | 20.88509 | 34877 ft | 501 kts | 74° |
| 2026-02-18 05:08 | 41.80999 | 20.97800 | 34889 ft | 500 kts | 74° |
| 2026-02-18 05:08 | 41.81834 | 21.07040 | 34853 ft | 499 kts | 75° |
| 2026-02-18 05:09 | 41.82660 | 21.16276 | 34830 ft | 498 kts | 75° |
| 2026-02-18 05:09 | 41.83476 | 21.25480 | 34865 ft | 497 kts | 75° |
| 2026-02-18 05:10 | 41.84284 | 21.34672 | 34835 ft | 495 kts | 76° |
| 2026-02-18 05:10 | 41.85082 | 21.43848 | 34844 ft | 495 kts | 76° |
| 2026-02-18 05:11 | 41.86262 | 21.57578 | 34833 ft | 493 kts | 76° |
| 2026-02-18 05:11 | 41.87039 | 21.66716 | 34831 ft | 493 kts | 77° |
| 2026-02-18 05:12 | 41.87803 | 21.75797 | 34829 ft | 493 kts | 77° |
| 2026-02-18 05:12 | 41.88565 | 21.84939 | 34826 ft | 492 kts | 77° |
| 2026-02-18 05:13 | 41.89319 | 21.94076 | 34820 ft | 492 kts | 78° |
| 2026-02-18 05:13 | 41.89940 | 22.01668 | 34810 ft | 492 kts | 78° |
| 2026-02-18 05:14 | 41.90680 | 22.10803 | 34800 ft | 492 kts | 78° |
| 2026-02-18 05:15 | 41.91776 | 22.24493 | 34780 ft | 492 kts | 79° |
| 2026-02-18 05:15 | 41.92498 | 22.33632 | 34775 ft | 492 kts | 79° |
| 2026-02-18 05:16 | 41.93213 | 22.42770 | 34771 ft | 492 kts | 79° |
| 2026-02-18 05:16 | 41.93921 | 22.51913 | 34766 ft | 491 kts | 79° |
| 2026-02-18 05:17 | 41.94620 | 22.61036 | 34758 ft | 491 kts | 79° |
| 2026-02-18 05:17 | 41.95313 | 22.70165 | 34754 ft | 491 kts | 79° |
| 2026-02-18 05:18 | 41.95995 | 22.79235 | 34746 ft | 491 kts | 80° |
| 2026-02-18 05:18 | 41.96628 | 22.88366 | 34736 ft | 493 kts | 86° |
| 2026-02-18 05:19 | 41.96235 | 23.02224 | 34738 ft | 495 kts | 89° |
| 2026-02-18 05:19 | 41.95940 | 23.11455 | 34724 ft | 494 kts | 89° |
| 2026-02-18 05:20 | 41.95637 | 23.20685 | 34709 ft | 494 kts | 89° |
| 2026-02-18 05:20 | 41.95327 | 23.29900 | 34710 ft | 494 kts | 90° |
| 2026-02-18 05:21 | 41.95010 | 23.39103 | 34693 ft | 493 kts | 90° |
| 2026-02-18 05:21 | 41.94686 | 23.48300 | 34691 ft | 492 kts | 90° |
| 2026-02-18 05:22 | 41.94355 | 23.57477 | 34678 ft | 492 kts | 90° |
| 2026-02-18 05:23 | 41.93846 | 23.71230 | 34670 ft | 490 kts | 90° |
| 2026-02-18 05:23 | 41.93498 | 23.80368 | 34665 ft | 490 kts | 90° |
| 2026-02-18 05:24 | 41.93144 | 23.89491 | 34665 ft | 489 kts | 90° |
| 2026-02-18 05:24 | 41.92783 | 23.98607 | 34660 ft | 488 kts | 91° |
| 2026-02-18 05:25 | 41.92415 | 24.07692 | 34664 ft | 488 kts | 91° |
| 2026-02-18 05:25 | 41.92041 | 24.16791 | 34664 ft | 487 kts | 91° |
| 2026-02-18 05:26 | 41.91658 | 24.25903 | 34669 ft | 490 kts | 91° |
| 2026-02-18 05:26 | 41.91265 | 24.35073 | 34666 ft | 494 kts | 91° |
| 2026-02-18 05:27 | 41.90660 | 24.48867 | 34674 ft | 493 kts | 91° |
| 2026-02-18 05:27 | 41.90250 | 24.58038 | 34645 ft | 491 kts | 91° |
| 2026-02-18 05:28 | 41.89831 | 24.67196 | 34628 ft | 492 kts | 91° |
| 2026-02-18 05:28 | 41.89407 | 24.76352 | 34636 ft | 492 kts | 91° |
| 2026-02-18 05:29 | 41.88974 | 24.85522 | 34619 ft | 492 kts | 91° |
| 2026-02-18 05:29 | 41.88534 | 24.94681 | 34620 ft | 492 kts | 91° |
| 2026-02-18 05:30 | 41.88091 | 25.03768 | 34622 ft | 491 kts | 92° |
| 2026-02-18 05:31 | 41.87406 | 25.17502 | 34627 ft | 489 kts | 92° |
| 2026-02-18 05:31 | 41.86947 | 25.26532 | 34628 ft | 487 kts | 92° |
| 2026-02-18 05:32 | 41.86480 | 25.35595 | 34625 ft | 486 kts | 92° |
| 2026-02-18 05:32 | 41.86002 | 25.44695 | 34625 ft | 485 kts | 93° |
| 2026-02-18 05:33 | 41.85522 | 25.53724 | 34627 ft | 485 kts | 93° |
| 2026-02-18 05:33 | 41.85039 | 25.62674 | 34628 ft | 484 kts | 93° |
| 2026-02-18 05:34 | 41.84545 | 25.71683 | 34625 ft | 483 kts | 93° |
| 2026-02-18 05:34 | 41.84047 | 25.80661 | 34632 ft | 483 kts | 94° |
| 2026-02-18 05:35 | 41.83283 | 25.94161 | 34470 ft | 483 kts | 94° |
| 2026-02-18 05:35 | 41.83027 | 25.98638 | 33749 ft | 483 kts | 94° |
| 2026-02-18 05:35 | 41.82767 | 26.03167 | 32792 ft | 485 kts | 94° |
| 2026-02-18 05:36 | 41.82507 | 26.07635 | 32304 ft | 476 kts | 94° |
| 2026-02-18 05:36 | 41.82252 | 26.12027 | 31821 ft | 468 kts | 94° |
| 2026-02-18 05:36 | 41.81998 | 26.16359 | 31219 ft | 463 kts | 93° |
| 2026-02-18 05:36 | 41.81745 | 26.20637 | 30614 ft | 458 kts | 93° |
| 2026-02-18 05:37 | 41.81494 | 26.24880 | 30027 ft | 453 kts | 93° |
| 2026-02-18 05:37 | 41.81244 | 26.29054 | 29473 ft | 446 kts | 93° |
| 2026-02-18 05:37 | 41.81001 | 26.33116 | 28876 ft | 439 kts | 93° |
| 2026-02-18 05:37 | 41.80529 | 26.37130 | 28337 ft | 435 kts | 106° |
| 2026-02-18 05:38 | 41.79492 | 26.40890 | 27965 ft | 425 kts | 109° |
| 2026-02-18 05:38 | 41.78498 | 26.44580 | 27624 ft | 416 kts | 108° |
| 2026-02-18 05:38 | 41.77516 | 26.48198 | 27239 ft | 409 kts | 108° |
| 2026-02-18 05:39 | 41.75584 | 26.55249 | 26493 ft | 402 kts | 109° |
| 2026-02-18 05:39 | 41.74353 | 26.58597 | 26045 ft | 401 kts | 122° |
| 2026-02-18 05:39 | 41.72807 | 26.61691 | 25707 ft | 399 kts | 122° |
| 2026-02-18 05:39 | 41.71285 | 26.64792 | 25372 ft | 399 kts | 122° |
| 2026-02-18 05:40 | 41.69754 | 26.67892 | 25005 ft | 397 kts | 122° |
| 2026-02-18 05:40 | 41.68251 | 26.70925 | 24645 ft | 396 kts | 122° |
| 2026-02-18 05:40 | 41.66733 | 26.73982 | 24283 ft | 394 kts | 123° |
| 2026-02-18 05:40 | 41.65152 | 26.76984 | 23900 ft | 393 kts | 130° |
| 2026-02-18 05:41 | 41.63073 | 26.79315 | 23482 ft | 390 kts | 149° |
| 2026-02-18 05:41 | 41.60575 | 26.80670 | 23144 ft | 389 kts | 166° |
| 2026-02-18 05:41 | 41.57915 | 26.81424 | 22749 ft | 390 kts | 169° |
| 2026-02-18 05:41 | 41.55245 | 26.82093 | 22375 ft | 390 kts | 170° |
| 2026-02-18 05:42 | 41.52577 | 26.82719 | 22021 ft | 389 kts | 171° |
| 2026-02-18 05:42 | 41.49955 | 26.83552 | 21605 ft | 387 kts | 159° |
| 2026-02-18 05:42 | 41.47660 | 26.85369 | 21261 ft | 384 kts | 139° |
| 2026-02-18 05:43 | 41.44639 | 26.91160 | 20615 ft | 387 kts | 116° |
| 2026-02-18 05:43 | 41.43481 | 26.94389 | 20245 ft | 386 kts | 115° |
| 2026-02-18 05:43 | 41.42360 | 26.97642 | 19896 ft | 385 kts | 115° |
| 2026-02-18 05:43 | 41.41258 | 27.00896 | 19543 ft | 384 kts | 115° |
| 2026-02-18 05:44 | 41.40172 | 27.04141 | 19184 ft | 383 kts | 115° |
| 2026-02-18 05:44 | 41.38930 | 27.07254 | 18789 ft | 379 kts | 129° |
| 2026-02-18 05:44 | 41.37063 | 27.09653 | 18475 ft | 372 kts | 147° |
| 2026-02-18 05:44 | 41.34889 | 27.11535 | 18147 ft | 373 kts | 149° |
| 2026-02-18 05:45 | 41.32694 | 27.13363 | 17818 ft | 372 kts | 150° |
| 2026-02-18 05:45 | 41.30497 | 27.15155 | 17439 ft | 369 kts | 151° |
| 2026-02-18 05:45 | 41.28315 | 27.16911 | 17093 ft | 364 kts | 152° |
| 2026-02-18 05:45 | 41.26177 | 27.18615 | 16755 ft | 359 kts | 152° |
| 2026-02-18 05:46 | 41.24055 | 27.20300 | 16446 ft | 348 kts | 152° |
| 2026-02-18 05:46 | 41.22017 | 27.21915 | 16150 ft | 334 kts | 153° |
| 2026-02-18 05:46 | 41.20052 | 27.23470 | 15836 ft | 327 kts | 152° |
| 2026-02-18 05:47 | 41.16187 | 27.26554 | 15238 ft | 320 kts | 153° |
| 2026-02-18 05:47 | 41.14283 | 27.28070 | 14956 ft | 317 kts | 152° |
| 2026-02-18 05:47 | 41.12401 | 27.29568 | 14657 ft | 315 kts | 153° |
| 2026-02-18 05:47 | 41.10518 | 27.31066 | 14381 ft | 315 kts | 153° |
| 2026-02-18 05:48 | 41.08642 | 27.32557 | 14096 ft | 314 kts | 153° |
| 2026-02-18 05:48 | 41.06771 | 27.34044 | 13780 ft | 314 kts | 153° |
| 2026-02-18 05:48 | 41.04898 | 27.35531 | 13483 ft | 313 kts | 153° |
| 2026-02-18 05:48 | 41.03034 | 27.37012 | 13174 ft | 312 kts | 153° |
| 2026-02-18 05:49 | 41.01178 | 27.38485 | 12861 ft | 309 kts | 153° |
| 2026-02-18 05:49 | 40.99339 | 27.39943 | 12594 ft | 307 kts | 153° |
| 2026-02-18 05:49 | 40.97519 | 27.41428 | 12297 ft | 308 kts | 148° |
| 2026-02-18 05:49 | 40.96059 | 27.43540 | 11936 ft | 316 kts | 123° |
| 2026-02-18 05:50 | 40.95201 | 27.46200 | 11705 ft | 314 kts | 114° |
| 2026-02-18 05:50 | 40.94394 | 27.48896 | 11650 ft | 316 kts | 115° |
| 2026-02-18 05:50 | 40.93596 | 27.51565 | 11544 ft | 316 kts | 114° |
| 2026-02-18 05:51 | 40.91986 | 27.56979 | 10975 ft | 316 kts | 115° |
| 2026-02-18 05:51 | 40.91188 | 27.59682 | 10670 ft | 315 kts | 112° |
| 2026-02-18 05:51 | 40.90807 | 27.62548 | 10308 ft | 319 kts | 93° |
| 2026-02-18 05:51 | 40.90732 | 27.65467 | 10022 ft | 315 kts | 94° |
| 2026-02-18 05:52 | 40.90642 | 27.68348 | 9729 ft | 313 kts | 94° |
| 2026-02-18 05:52 | 40.90557 | 27.71208 | 9430 ft | 310 kts | 95° |
| 2026-02-18 05:52 | 40.90472 | 27.74044 | 9107 ft | 308 kts | 95° |
| 2026-02-18 05:52 | 40.90547 | 27.76834 | 9042 ft | 298 kts | 82° |
| 2026-02-18 05:53 | 40.90938 | 27.79480 | 9040 ft | 291 kts | 80° |
| 2026-02-18 05:53 | 40.91318 | 27.82062 | 9038 ft | 289 kts | 81° |
| 2026-02-18 05:53 | 40.91789 | 27.84647 | 9006 ft | 290 kts | 67° |
| 2026-02-18 05:53 | 40.92940 | 27.86787 | 8966 ft | 285 kts | 38° |
| 2026-02-18 05:54 | 40.94653 | 27.88013 | 8992 ft | 280 kts | 11° |
| 2026-02-18 05:54 | 40.96559 | 27.88313 | 9012 ft | 275 kts | 357° |
| 2026-02-18 05:54 | 40.98474 | 27.88358 | 9010 ft | 276 kts | 356° |
| 2026-02-18 05:55 | 41.02312 | 27.88423 | 8989 ft | 277 kts | 3° |
| 2026-02-18 05:55 | 41.04208 | 27.89000 | 9011 ft | 280 kts | 11° |
| 2026-02-18 05:55 | 41.06095 | 27.89669 | 9001 ft | 280 kts | 11° |
| 2026-02-18 05:55 | 41.07979 | 27.90324 | 9006 ft | 280 kts | 11° |
| 2026-02-18 05:56 | 41.09869 | 27.90973 | 9003 ft | 280 kts | 11° |
| 2026-02-18 05:56 | 41.11751 | 27.91641 | 8997 ft | 281 kts | 16° |
| 2026-02-18 05:56 | 41.13510 | 27.92793 | 9007 ft | 283 kts | 28° |
| 2026-02-18 05:56 | 41.15219 | 27.94092 | 9000 ft | 283 kts | 28° |
| 2026-02-18 05:57 | 41.16933 | 27.95383 | 9000 ft | 283 kts | 27° |
| 2026-02-18 05:57 | 41.18648 | 27.96668 | 9002 ft | 283 kts | 27° |
| 2026-02-18 05:57 | 41.20358 | 27.97961 | 9001 ft | 283 kts | 31° |
| 2026-02-18 05:57 | 41.21860 | 27.99650 | 8999 ft | 283 kts | 45° |
| 2026-02-18 05:58 | 41.23259 | 28.01503 | 9010 ft | 284 kts | 44° |
| 2026-02-18 05:58 | 41.24612 | 28.03412 | 8936 ft | 281 kts | 56° |
| 2026-02-18 05:58 | 41.25352 | 28.05739 | 8783 ft | 277 kts | 84° |
| 2026-02-18 05:59 | 41.24386 | 28.10421 | 8548 ft | 261 kts | 135° |
| 2026-02-18 05:59 | 41.23083 | 28.12070 | 8425 ft | 258 kts | 143° |
| 2026-02-18 05:59 | 41.21717 | 28.13621 | 8291 ft | 258 kts | 144° |
| 2026-02-18 05:59 | 41.20803 | 28.14625 | 8192 ft | 257 kts | 146° |
| 2026-02-18 06:00 | 41.18960 | 28.16598 | 8003 ft | 256 kts | 146° |
| 2026-02-18 06:00 | 41.17567 | 28.18066 | 7867 ft | 256 kts | 147° |
| 2026-02-18 06:00 | 41.16170 | 28.19525 | 7710 ft | 255 kts | 147° |
| 2026-02-18 06:00 | 41.15247 | 28.20485 | 7604 ft | 254 kts | 147° |
| 2026-02-18 06:01 | 41.13854 | 28.21927 | 7475 ft | 254 kts | 147° |
| 2026-02-18 06:01 | 41.12461 | 28.23366 | 7347 ft | 253 kts | 147° |
| 2026-02-18 06:01 | 41.11075 | 28.24794 | 7216 ft | 253 kts | 147° |
| 2026-02-18 06:01 | 41.09679 | 28.26232 | 7091 ft | 253 kts | 147° |
| 2026-02-18 06:02 | 41.08291 | 28.27660 | 6948 ft | 252 kts | 147° |
| 2026-02-18 06:02 | 41.06910 | 28.29081 | 6819 ft | 252 kts | 147° |
| 2026-02-18 06:02 | 41.05526 | 28.30502 | 6671 ft | 251 kts | 147° |
| 2026-02-18 06:03 | 41.02770 | 28.33332 | 6415 ft | 250 kts | 148° |
| 2026-02-18 06:03 | 41.01394 | 28.34743 | 6287 ft | 249 kts | 148° |
| 2026-02-18 06:03 | 41.00049 | 28.36122 | 6152 ft | 241 kts | 148° |
| 2026-02-18 06:03 | 40.98780 | 28.37533 | 6012 ft | 241 kts | 135° |
| 2026-02-18 06:04 | 40.98026 | 28.39548 | 5842 ft | 252 kts | 105° |
| 2026-02-18 06:04 | 40.98059 | 28.41899 | 5720 ft | 260 kts | 81° |
| 2026-02-18 06:04 | 40.98428 | 28.44256 | 5608 ft | 261 kts | 81° |
| 2026-02-18 06:04 | 40.98789 | 28.46602 | 5453 ft | 260 kts | 81° |
| 2026-02-18 06:05 | 40.99148 | 28.48944 | 5310 ft | 259 kts | 81° |
| 2026-02-18 06:05 | 40.99506 | 28.51283 | 5166 ft | 258 kts | 81° |
| 2026-02-18 06:05 | 40.99863 | 28.53607 | 5053 ft | 257 kts | 81° |
| 2026-02-18 06:05 | 41.00217 | 28.55926 | 5011 ft | 257 kts | 81° |
| 2026-02-18 06:06 | 41.00570 | 28.58249 | 4469 ft | 271 kts | 80° |
| 2026-02-18 06:06 | 41.00958 | 28.60790 | 3881 ft | 283 kts | 79° |
| 2026-02-18 06:06 | 41.01335 | 28.63268 | 3982 ft | 265 kts | 79° |
| 2026-02-18 06:07 | 41.02017 | 28.67764 | 4065 ft | 233 kts | 80° |
| 2026-02-18 06:07 | 41.02335 | 28.69811 | 4025 ft | 221 kts | 76° |
| 2026-02-18 06:07 | 41.03049 | 28.71559 | 3974 ft | 216 kts | 43° |
| 2026-02-18 06:07 | 41.04291 | 28.72582 | 4038 ft | 206 kts | 13° |
| 2026-02-18 06:08 | 41.05671 | 28.72891 | 4044 ft | 199 kts | 360° |
| 2026-02-18 06:08 | 41.07045 | 28.73101 | 4053 ft | 195 kts | 0° |
| 2026-02-18 06:08 | 41.08382 | 28.73183 | 3909 ft | 190 kts | 355° |
| 2026-02-18 06:08 | 41.09692 | 28.73164 | 3672 ft | 186 kts | 353° |
| 2026-02-18 06:09 | 41.10971 | 28.73129 | 3431 ft | 182 kts | 354° |
| 2026-02-18 06:09 | 41.12228 | 28.73099 | 3176 ft | 179 kts | 354° |
| 2026-02-18 06:09 | 41.13457 | 28.73072 | 2921 ft | 175 kts | 354° |
| 2026-02-18 06:09 | 41.14650 | 28.73046 | 2704 ft | 169 kts | 354° |
| 2026-02-18 06:10 | 41.15817 | 28.73017 | 2505 ft | 166 kts | 354° |
| 2026-02-18 06:10 | 41.16930 | 28.72992 | 2300 ft | 150 kts | 354° |
| 2026-02-18 06:10 | 41.17900 | 28.72970 | 2099 ft | 133 kts | 354° |
| 2026-02-18 06:11 | 41.19687 | 28.72928 | 1710 ft | 126 kts | 353° |
| 2026-02-18 06:11 | 41.20560 | 28.72907 | 1524 ft | 125 kts | 353° |
| 2026-02-18 06:11 | 41.21425 | 28.72888 | 1348 ft | 124 kts | 352° |
| 2026-02-18 06:11 | 41.22290 | 28.72864 | 1168 ft | 124 kts | 353° |
| 2026-02-18 06:12 | 41.23159 | 28.72847 | 998 ft | 125 kts | 353° |
| 2026-02-18 06:12 | 41.24055 | 28.72857 | 822 ft | 132 kts | 354° |
| 2026-02-18 06:12 | 41.24964 | 28.72847 | 648 ft | 130 kts | 351° |
| 2026-02-18 06:12 | 41.25849 | 28.72786 | 478 ft | 127 kts | 354° |
| 2026-02-18 06:13 | 41.26722 | 28.72764 | 345 ft | 121 kts | 354° |
| 2026-02-18 06:13 | 41.27483 | 28.72736 | 335 ft | 97 kts | 356° |
| 2026-02-18 06:13 | 41.27981 | 28.72731 | 333 ft | 42 kts | 357° |
| 2026-02-18 06:13 | 41.28168 | 28.72723 | 332 ft | 28 kts | 1° |
| 2026-02-18 06:14 | 41.28360 | 28.72650 | 336 ft | 28 kts | 331° |
| 2026-02-18 06:14 | 41.28510 | 28.72528 | 334 ft | 23 kts | 314° |
| 2026-02-18 06:14 | 41.28521 | 28.72357 | 335 ft | 17 kts | 265° |
| 2026-02-18 06:15 | 41.28357 | 28.72239 | 333 ft | 57 kts | 174° |
| 2026-02-18 06:15 | 41.27902 | 28.72252 | 334 ft | 57 kts | 178° |
| 2026-02-18 06:15 | 41.27725 | 28.72218 | 333 ft | 9 kts | 238° |
| 2026-02-18 06:15 | 41.27715 | 28.72089 | 336 ft | 18 kts | 268° |